sensor_id;sensor_type;location;lat;lon;timestamp;pressure;altitude;pressure_sealevel;temperature;humidity
43119;BME280;28729;49.838;8.650;2022-12-11T00:01:18;99253.19;;;-1.24;100.00
43119;BME280;28729;49.838;8.650;2022-12-11T00:05:20;99253.44;;;-1.19;100.00
43119;BME280;28729;49.838;8.650;2022-12-11T00:09:22;99266.03;;;-1.11;100.00
43119;BME280;28729;49.838;8.650;2022-12-11T00:13:23;99275.28;;;-1.06;100.00
43119;BME280;28729;49.838;8.650;2022-12-11T00:17:25;99275.72;;;-1.02;100.00
43119;BME280;28729;49.838;8.650;2022-12-11T00:21:27;99272.47;;;-0.98;100.00
43119;BME280;28729;49.838;8.650;2022-12-11T00:25:28;99277.75;;;-0.89;100.00
43119;BME280;28729;49.838;8.650;2022-12-11T00:29:30;99268.72;;;-0.82;100.00
43119;BME280;28729;49.838;8.650;2022-12-11T00:33:31;99269.59;;;-0.75;100.00
43119;BME280;28729;49.838;8.650;2022-12-11T00:37:33;99262.59;;;-0.69;100.00
43119;BME280;28729;49.838;8.650;2022-12-11T00:41:35;99261.44;;;-0.60;100.00
43119;BME280;28729;49.838;8.650;2022-12-11T00:45:37;99266.31;;;-0.55;100.00
43119;BME280;28729;49.838;8.650;2022-12-11T00:49:39;99272.16;;;-0.52;100.00
43119;BME280;28729;49.838;8.650;2022-12-11T00:53:48;99274.31;;;-0.47;100.00
43119;BME280;28729;49.838;8.650;2022-12-11T00:57:50;99274.94;;;-0.45;100.00
43119;BME280;28729;49.838;8.650;2022-12-11T01:01:52;99269.53;;;-0.45;100.00
43119;BME280;28729;49.838;8.650;2022-12-11T01:05:54;99272.88;;;-0.43;100.00
43119;BME280;28729;49.838;8.650;2022-12-11T01:09:55;99271.28;;;-0.37;100.00
43119;BME280;28729;49.838;8.650;2022-12-11T01:14:15;99270.72;;;-0.33;100.00
43119;BME280;28729;49.838;8.650;2022-12-11T01:18:17;99268.63;;;-0.31;100.00
43119;BME280;28729;49.838;8.650;2022-12-11T01:22:19;99269.09;;;-0.27;100.00
43119;BME280;28729;49.838;8.650;2022-12-11T01:26:21;99269.75;;;-0.25;100.00
43119;BME280;28729;49.838;8.650;2022-12-11T01:30:24;99276.66;;;-0.22;100.00
43119;BME280;28729;49.838;8.650;2022-12-11T01:34:28;99259.56;;;-0.23;100.00
43119;BME280;28729;49.838;8.650;2022-12-11T01:38:30;99258.34;;;-0.20;100.00
43119;BME280;28729;49.838;8.650;2022-12-11T01:42:32;99255.38;;;-0.26;100.00
43119;BME280;28729;49.838;8.650;2022-12-11T01:46:35;99262.59;;;-0.33;100.00
43119;BME280;28729;49.838;8.650;2022-12-11T01:50:41;99263.44;;;-0.32;100.00
43119;BME280;28729;49.838;8.650;2022-12-11T01:54:44;99273.88;;;-0.29;100.00
43119;BME280;28729;49.838;8.650;2022-12-11T01:58:51;99264.53;;;-0.27;100.00
43119;BME280;28729;49.838;8.650;2022-12-11T02:02:54;99265.16;;;-0.25;100.00
43119;BME280;28729;49.838;8.650;2022-12-11T02:06:55;99268.31;;;-0.21;100.00
43119;BME280;28729;49.838;8.650;2022-12-11T02:11:11;99268.56;;;-0.16;100.00
43119;BME280;28729;49.838;8.650;2022-12-11T02:19:32;99252.38;;;-0.09;100.00
43119;BME280;28729;49.838;8.650;2022-12-11T02:23:55;99260.31;;;-0.08;100.00
43119;BME280;28729;49.838;8.650;2022-12-11T02:28:18;99263.69;;;-0.06;100.00
43119;BME280;28729;49.838;8.650;2022-12-11T02:32:56;99269.94;;;-0.05;100.00
43119;BME280;28729;49.838;8.650;2022-12-11T02:37:06;99270.31;;;-0.08;100.00
43119;BME280;28729;49.838;8.650;2022-12-11T02:41:10;99269.09;;;-0.06;100.00
43119;BME280;28729;49.838;8.650;2022-12-11T02:45:13;99276.84;;;-0.03;100.00
43119;BME280;28729;49.838;8.650;2022-12-11T02:49:18;99263.75;;;0.01;100.00
43119;BME280;28729;49.838;8.650;2022-12-11T02:53:23;99264.56;;;0.02;100.00
43119;BME280;28729;49.838;8.650;2022-12-11T02:57:31;99254.19;;;0.05;100.00
43119;BME280;28729;49.838;8.650;2022-12-11T03:01:34;99265.66;;;0.07;100.00
43119;BME280;28729;49.838;8.650;2022-12-11T03:05:36;99268.38;;;0.07;100.00
43119;BME280;28729;49.838;8.650;2022-12-11T03:09:40;99261.91;;;0.08;100.00
43119;BME280;28729;49.838;8.650;2022-12-11T03:13:42;99272.34;;;0.11;100.00
43119;BME280;28729;49.838;8.650;2022-12-11T03:18:04;99273.84;;;0.14;100.00
43119;BME280;28729;49.838;8.650;2022-12-11T03:22:11;99271.34;;;0.12;100.00
43119;BME280;28729;49.838;8.650;2022-12-11T03:26:18;99266.75;;;0.13;100.00
43119;BME280;28729;49.838;8.650;2022-12-11T03:30:22;99260.50;;;0.12;100.00
43119;BME280;28729;49.838;8.650;2022-12-11T03:34:32;99265.06;;;0.12;100.00
43119;BME280;28729;49.838;8.650;2022-12-11T03:38:45;99272.19;;;0.13;100.00
43119;BME280;28729;49.838;8.650;2022-12-11T03:42:51;99268.31;;;0.01;100.00
43119;BME280;28729;49.838;8.650;2022-12-11T03:46:55;99268.00;;;-0.11;100.00
43119;BME280;28729;49.838;8.650;2022-12-11T03:51:00;99264.06;;;-0.09;100.00
43119;BME280;28729;49.838;8.650;2022-12-11T03:55:04;99265.53;;;-0.06;100.00
43119;BME280;28729;49.838;8.650;2022-12-11T03:59:07;99262.91;;;0.01;100.00
43119;BME280;28729;49.838;8.650;2022-12-11T04:03:09;99257.41;;;-0.06;100.00
43119;BME280;28729;49.838;8.650;2022-12-11T04:07:14;99265.69;;;-0.14;100.00
43119;BME280;28729;49.838;8.650;2022-12-11T04:11:16;99268.84;;;-0.11;100.00
43119;BME280;28729;49.838;8.650;2022-12-11T04:15:36;99267.78;;;-0.10;100.00
43119;BME280;28729;49.838;8.650;2022-12-11T04:19:38;99260.97;;;-0.06;100.00
43119;BME280;28729;49.838;8.650;2022-12-11T04:23:59;99257.09;;;0.04;100.00
43119;BME280;28729;49.838;8.650;2022-12-11T04:28:15;99257.31;;;0.09;100.00
43119;BME280;28729;49.838;8.650;2022-12-11T04:32:17;99265.84;;;0.06;100.00
43119;BME280;28729;49.838;8.650;2022-12-11T04:36:18;99272.69;;;0.02;100.00
43119;BME280;28729;49.838;8.650;2022-12-11T04:40:20;99262.25;;;-0.02;100.00
43119;BME280;28729;49.838;8.650;2022-12-11T04:44:22;99268.75;;;0.04;100.00
43119;BME280;28729;49.838;8.650;2022-12-11T04:48:24;99267.16;;;0.10;100.00
43119;BME280;28729;49.838;8.650;2022-12-11T04:52:25;99265.72;;;0.14;100.00
43119;BME280;28729;49.838;8.650;2022-12-11T04:56:27;99257.41;;;0.15;100.00
43119;BME280;28729;49.838;8.650;2022-12-11T05:00:29;99250.09;;;0.16;100.00
43119;BME280;28729;49.838;8.650;2022-12-11T05:04:32;99250.53;;;0.19;100.00
43119;BME280;28729;49.838;8.650;2022-12-11T05:08:36;99248.50;;;0.21;100.00
43119;BME280;28729;49.838;8.650;2022-12-11T05:12:38;99255.91;;;0.13;100.00
43119;BME280;28729;49.838;8.650;2022-12-11T05:16:40;99250.06;;;0.09;100.00
43119;BME280;28729;49.838;8.650;2022-12-11T05:20:41;99251.25;;;0.00;100.00
43119;BME280;28729;49.838;8.650;2022-12-11T05:24:44;99244.50;;;-0.04;100.00
43119;BME280;28729;49.838;8.650;2022-12-11T05:28:50;99240.00;;;0.03;100.00
43119;BME280;28729;49.838;8.650;2022-12-11T05:32:53;99235.66;;;0.09;100.00
43119;BME280;28729;49.838;8.650;2022-12-11T05:36:55;99238.84;;;0.12;100.00
43119;BME280;28729;49.838;8.650;2022-12-11T05:41:02;99235.50;;;0.17;100.00
43119;BME280;28729;49.838;8.650;2022-12-11T05:45:04;99235.94;;;0.20;100.00
43119;BME280;28729;49.838;8.650;2022-12-11T05:49:05;99240.06;;;0.10;100.00
43119;BME280;28729;49.838;8.650;2022-12-11T05:53:08;99225.41;;;0.04;100.00
43119;BME280;28729;49.838;8.650;2022-12-11T05:57:09;99225.59;;;0.03;100.00
43119;BME280;28729;49.838;8.650;2022-12-11T06:01:14;99213.69;;;-0.03;100.00
43119;BME280;28729;49.838;8.650;2022-12-11T06:05:16;99211.19;;;-0.05;100.00
43119;BME280;28729;49.838;8.650;2022-12-11T06:09:17;99219.75;;;-0.01;100.00
43119;BME280;28729;49.838;8.650;2022-12-11T06:13:19;99220.19;;;0.03;100.00
43119;BME280;28729;49.838;8.650;2022-12-11T06:17:22;99232.31;;;0.07;100.00
43119;BME280;28729;49.838;8.650;2022-12-11T06:21:26;99229.00;;;0.11;100.00
43119;BME280;28729;49.838;8.650;2022-12-11T06:25:28;99232.81;;;0.17;100.00
43119;BME280;28729;49.838;8.650;2022-12-11T06:29:30;99228.47;;;0.22;100.00
43119;BME280;28729;49.838;8.650;2022-12-11T06:33:32;99223.72;;;0.25;100.00
43119;BME280;28729;49.838;8.650;2022-12-11T06:37:35;99213.88;;;0.23;100.00
43119;BME280;28729;49.838;8.650;2022-12-11T06:41:37;99205.34;;;0.27;100.00
43119;BME280;28729;49.838;8.650;2022-12-11T06:45:39;99217.63;;;0.22;100.00
43119;BME280;28729;49.838;8.650;2022-12-11T06:49:40;99207.22;;;0.26;100.00
43119;BME280;28729;49.838;8.650;2022-12-11T06:53:42;99214.75;;;0.24;100.00
43119;BME280;28729;49.838;8.650;2022-12-11T06:57:44;99208.47;;;0.23;100.00
43119;BME280;28729;49.838;8.650;2022-12-11T07:01:46;99213.06;;;0.23;100.00
43119;BME280;28729;49.838;8.650;2022-12-11T07:05:47;99203.50;;;0.27;100.00
43119;BME280;28729;49.838;8.650;2022-12-11T07:09:49;99208.97;;;0.34;100.00
43119;BME280;28729;49.838;8.650;2022-12-11T07:13:51;99212.53;;;0.41;100.00
43119;BME280;28729;49.838;8.650;2022-12-11T07:17:52;99206.69;;;0.37;100.00
43119;BME280;28729;49.838;8.650;2022-12-11T07:21:54;99203.56;;;0.40;100.00
43119;BME280;28729;49.838;8.650;2022-12-11T07:25:56;99207.78;;;0.43;100.00
43119;BME280;28729;49.838;8.650;2022-12-11T07:29:58;99210.66;;;0.41;100.00
43119;BME280;28729;49.838;8.650;2022-12-11T07:34:02;99211.75;;;0.47;100.00
43119;BME280;28729;49.838;8.650;2022-12-11T07:38:04;99219.88;;;0.47;100.00
43119;BME280;28729;49.838;8.650;2022-12-11T07:42:05;99224.72;;;0.52;100.00
43119;BME280;28729;49.838;8.650;2022-12-11T07:46:13;99232.00;;;0.51;100.00
43119;BME280;28729;49.838;8.650;2022-12-11T07:50:15;99243.66;;;0.45;100.00
43119;BME280;28729;49.838;8.650;2022-12-11T07:54:17;99239.69;;;0.48;100.00
43119;BME280;28729;49.838;8.650;2022-12-11T07:58:19;99236.22;;;0.54;100.00
43119;BME280;28729;49.838;8.650;2022-12-11T08:02:21;99234.09;;;0.56;100.00
43119;BME280;28729;49.838;8.650;2022-12-11T08:06:31;99229.91;;;0.53;100.00
43119;BME280;28729;49.838;8.650;2022-12-11T08:10:33;99222.47;;;0.62;100.00
43119;BME280;28729;49.838;8.650;2022-12-11T08:14:35;99226.22;;;0.61;100.00
43119;BME280;28729;49.838;8.650;2022-12-11T08:18:36;99235.13;;;0.48;100.00
43119;BME280;28729;49.838;8.650;2022-12-11T08:22:38;99248.69;;;0.48;100.00
43119;BME280;28729;49.838;8.650;2022-12-11T08:26:39;99245.75;;;0.50;100.00
43119;BME280;28729;49.838;8.650;2022-12-11T08:30:41;99254.13;;;0.55;100.00
43119;BME280;28729;49.838;8.650;2022-12-11T08:34:43;99254.13;;;0.55;100.00
43119;BME280;28729;49.838;8.650;2022-12-11T08:38:45;99255.84;;;0.62;100.00
43119;BME280;28729;49.838;8.650;2022-12-11T08:42:47;99247.38;;;0.72;100.00
43119;BME280;28729;49.838;8.650;2022-12-11T08:46:49;99242.41;;;0.82;100.00
43119;BME280;28729;49.838;8.650;2022-12-11T08:50:51;99243.69;;;0.86;100.00
43119;BME280;28729;49.838;8.650;2022-12-11T08:54:53;99236.41;;;0.94;100.00
43119;BME280;28729;49.838;8.650;2022-12-11T08:58:54;99238.72;;;0.97;100.00
43119;BME280;28729;49.838;8.650;2022-12-11T09:02:56;99242.03;;;0.92;100.00
43119;BME280;28729;49.838;8.650;2022-12-11T09:06:58;99245.34;;;0.87;100.00
43119;BME280;28729;49.838;8.650;2022-12-11T09:11:04;99234.75;;;0.93;100.00
43119;BME280;28729;49.838;8.650;2022-12-11T09:15:10;99238.06;;;0.95;100.00
43119;BME280;28729;49.838;8.650;2022-12-11T09:19:13;99232.47;;;0.96;100.00
43119;BME280;28729;49.838;8.650;2022-12-11T09:23:15;99249.56;;;0.97;100.00
43119;BME280;28729;49.838;8.650;2022-12-11T09:27:17;99254.13;;;0.89;100.00
43119;BME280;28729;49.838;8.650;2022-12-11T09:31:31;99249.47;;;0.77;100.00
43119;BME280;28729;49.838;8.650;2022-12-11T09:35:33;99247.19;;;0.80;100.00
43119;BME280;28729;49.838;8.650;2022-12-11T09:39:34;99240.56;;;0.89;100.00
43119;BME280;28729;49.838;8.650;2022-12-11T09:43:48;99243.16;;;1.04;100.00
43119;BME280;28729;49.838;8.650;2022-12-11T09:47:55;99237.34;;;1.14;100.00
43119;BME280;28729;49.838;8.650;2022-12-11T09:52:17;99230.28;;;1.26;100.00
43119;BME280;28729;49.838;8.650;2022-12-11T09:56:21;99230.53;;;1.38;100.00
43119;BME280;28729;49.838;8.650;2022-12-11T10:00:39;99230.13;;;1.48;100.00
43119;BME280;28729;49.838;8.650;2022-12-11T10:04:57;99229.88;;;1.43;100.00
43119;BME280;28729;49.838;8.650;2022-12-11T10:09:25;99232.84;;;1.48;100.00
43119;BME280;28729;49.838;8.650;2022-12-11T10:18:13;99223.44;;;1.44;100.00
43119;BME280;28729;49.838;8.650;2022-12-11T10:22:22;99218.19;;;1.42;100.00
43119;BME280;28729;49.838;8.650;2022-12-11T10:26:27;99211.56;;;1.58;100.00
43119;BME280;28729;49.838;8.650;2022-12-11T10:30:36;99205.94;;;1.73;100.00
43119;BME280;28729;49.838;8.650;2022-12-11T10:34:41;99205.75;;;1.94;100.00
43119;BME280;28729;49.838;8.650;2022-12-11T10:38:45;99196.31;;;2.10;100.00
43119;BME280;28729;49.838;8.650;2022-12-11T10:42:51;99197.78;;;2.19;100.00
43119;BME280;28729;49.838;8.650;2022-12-11T10:47:20;99189.44;;;2.21;100.00
43119;BME280;28729;49.838;8.650;2022-12-11T10:51:24;99183.16;;;2.20;100.00
43119;BME280;28729;49.838;8.650;2022-12-11T10:55:30;99181.03;;;2.22;100.00
43119;BME280;28729;49.838;8.650;2022-12-11T10:59:37;99177.72;;;2.27;100.00
43119;BME280;28729;49.838;8.650;2022-12-11T11:04:06;99181.69;;;2.24;100.00
43119;BME280;28729;49.838;8.650;2022-12-11T11:08:17;99184.81;;;2.28;99.32
43119;BME280;28729;49.838;8.650;2022-12-11T11:12:26;99163.94;;;2.15;99.37
43119;BME280;28729;49.838;8.650;2022-12-11T11:16:27;99161.41;;;2.20;100.00
43119;BME280;28729;49.838;8.650;2022-12-11T11:20:30;99160.56;;;2.13;100.00
43119;BME280;28729;49.838;8.650;2022-12-11T11:24:40;99160.56;;;2.20;100.00
43119;BME280;28729;49.838;8.650;2022-12-11T11:28:47;99158.44;;;2.28;100.00
43119;BME280;28729;49.838;8.650;2022-12-11T11:32:51;99148.00;;;2.39;99.81
43119;BME280;28729;49.838;8.650;2022-12-11T11:36:56;99145.66;;;2.49;99.78
43119;BME280;28729;49.838;8.650;2022-12-11T11:41:22;99148.00;;;2.39;99.12
43119;BME280;28729;49.838;8.650;2022-12-11T11:45:36;99139.19;;;2.43;100.00
43119;BME280;28729;49.838;8.650;2022-12-11T11:49:48;99146.69;;;2.55;100.00
43119;BME280;28729;49.838;8.650;2022-12-11T11:53:56;99141.28;;;2.48;99.12
43119;BME280;28729;49.838;8.650;2022-12-11T11:58:04;99140.88;;;2.31;99.04
43119;BME280;28729;49.838;8.650;2022-12-11T12:02:16;99137.72;;;2.41;99.62
43119;BME280;28729;49.838;8.650;2022-12-11T12:06:22;99131.03;;;2.50;98.68
43119;BME280;28729;49.838;8.650;2022-12-11T12:15:14;99133.75;;;2.50;97.99
43119;BME280;28729;49.838;8.650;2022-12-11T12:27:50;99130.84;;;2.38;98.58
43119;BME280;28729;49.838;8.650;2022-12-11T12:40:38;99125.91;;;2.67;96.41
43119;BME280;28729;49.838;8.650;2022-12-11T12:45:03;99125.16;;;2.53;96.68
43119;BME280;28729;49.838;8.650;2022-12-11T12:49:13;99127.25;;;2.51;96.48
43119;BME280;28729;49.838;8.650;2022-12-11T12:53:26;99121.81;;;2.38;96.49
43119;BME280;28729;49.838;8.650;2022-12-11T12:57:29;99128.78;;;2.27;96.84
43119;BME280;28729;49.838;8.650;2022-12-11T13:01:31;99138.84;;;2.07;96.17
43119;BME280;28729;49.838;8.650;2022-12-11T13:05:33;99132.56;;;1.93;97.99
43119;BME280;28729;49.838;8.650;2022-12-11T13:09:34;99133.03;;;1.96;98.48
43119;BME280;28729;49.838;8.650;2022-12-11T13:13:40;99135.13;;;1.88;97.40
43119;BME280;28729;49.838;8.650;2022-12-11T13:17:42;99127.59;;;1.76;98.00
43119;BME280;28729;49.838;8.650;2022-12-11T13:21:55;99129.25;;;1.77;98.18
43119;BME280;28729;49.838;8.650;2022-12-11T13:26:00;99130.53;;;1.81;97.66
43119;BME280;28729;49.838;8.650;2022-12-11T13:34:20;99130.91;;;1.72;96.97
43119;BME280;28729;49.838;8.650;2022-12-11T13:38:24;99133.88;;;1.70;97.32
43119;BME280;28729;49.838;8.650;2022-12-11T13:42:30;99130.09;;;1.78;97.20
43119;BME280;28729;49.838;8.650;2022-12-11T13:46:35;99138.03;;;1.79;96.34
43119;BME280;28729;49.838;8.650;2022-12-11T13:50:41;99118.81;;;1.74;97.21
43119;BME280;28729;49.838;8.650;2022-12-11T13:54:54;99123.41;;;1.80;97.04
43119;BME280;28729;49.838;8.650;2022-12-11T13:58:56;99126.31;;;1.72;95.96
43119;BME280;28729;49.838;8.650;2022-12-11T14:03:01;99134.06;;;1.62;96.29
43119;BME280;28729;49.838;8.650;2022-12-11T14:07:07;99134.66;;;1.57;97.32
43119;BME280;28729;49.838;8.650;2022-12-11T14:11:19;99135.72;;;1.63;97.40
43119;BME280;28729;49.838;8.650;2022-12-11T14:15:22;99140.72;;;1.66;97.27
43119;BME280;28729;49.838;8.650;2022-12-11T14:19:24;99150.56;;;1.67;96.70
43119;BME280;28729;49.838;8.650;2022-12-11T14:23:29;99146.81;;;1.55;96.89
43119;BME280;28729;49.838;8.650;2022-12-11T14:27:32;99148.66;;;1.54;97.29
43119;BME280;28729;49.838;8.650;2022-12-11T14:31:37;99150.38;;;1.49;97.85
43119;BME280;28729;49.838;8.650;2022-12-11T14:35:41;99161.00;;;1.50;97.68
43119;BME280;28729;49.838;8.650;2022-12-11T14:39:49;99148.25;;;1.51;98.35
43119;BME280;28729;49.838;8.650;2022-12-11T14:43:56;99163.09;;;1.55;98.10
43119;BME280;28729;49.838;8.650;2022-12-11T14:48:01;99167.47;;;1.63;98.43
43119;BME280;28729;49.838;8.650;2022-12-11T14:52:03;99171.88;;;1.64;97.85
43119;BME280;28729;49.838;8.650;2022-12-11T14:56:07;99162.47;;;1.59;97.98
43119;BME280;28729;49.838;8.650;2022-12-11T15:00:28;99167.47;;;1.63;98.26
43119;BME280;28729;49.838;8.650;2022-12-11T15:04:31;99176.88;;;1.53;97.74
43119;BME280;28729;49.838;8.650;2022-12-11T15:08:34;99178.94;;;1.45;98.49
43119;BME280;28729;49.838;8.650;2022-12-11T15:12:43;99174.16;;;1.40;99.35
43119;BME280;28729;49.838;8.650;2022-12-11T15:16:46;99171.84;;;1.44;99.57
43119;BME280;28729;49.838;8.650;2022-12-11T15:20:52;99168.50;;;1.48;99.43
43119;BME280;28729;49.838;8.650;2022-12-11T15:24:54;99166.66;;;1.49;99.58
43119;BME280;28729;49.838;8.650;2022-12-11T15:29:01;99175.19;;;1.46;99.08
43119;BME280;28729;49.838;8.650;2022-12-11T15:37:30;99172.47;;;1.32;99.51
43119;BME280;28729;49.838;8.650;2022-12-11T15:41:33;99184.38;;;1.38;100.00
43119;BME280;28729;49.838;8.650;2022-12-11T15:45:35;99181.44;;;1.40;100.00
43119;BME280;28729;49.838;8.650;2022-12-11T15:49:36;99183.53;;;1.38;99.16
43119;BME280;28729;49.838;8.650;2022-12-11T15:53:38;99181.19;;;1.28;99.75
43119;BME280;28729;49.838;8.650;2022-12-11T15:58:00;99183.50;;;1.24;99.98
43119;BME280;28729;49.838;8.650;2022-12-11T16:02:03;99182.25;;;1.27;100.00
43119;BME280;28729;49.838;8.650;2022-12-11T16:06:04;99190.63;;;1.32;100.00
43119;BME280;28729;49.838;8.650;2022-12-11T16:10:07;99192.94;;;1.35;100.00
43119;BME280;28729;49.838;8.650;2022-12-11T16:14:13;99187.28;;;1.36;100.00
43119;BME280;28729;49.838;8.650;2022-12-11T16:18:19;99185.84;;;1.41;100.00
43119;BME280;28729;49.838;8.650;2022-12-11T16:22:21;99178.94;;;1.38;100.00
43119;BME280;28729;49.838;8.650;2022-12-11T16:26:22;99177.69;;;1.34;100.00
43119;BME280;28729;49.838;8.650;2022-12-11T16:30:25;99181.03;;;1.36;100.00
43119;BME280;28729;49.838;8.650;2022-12-11T16:34:28;99175.19;;;1.39;100.00
43119;BME280;28729;49.838;8.650;2022-12-11T16:38:29;99173.94;;;1.42;100.00
43119;BME280;28729;49.838;8.650;2022-12-11T16:42:31;99170.16;;;1.43;100.00
43119;BME280;28729;49.838;8.650;2022-12-11T16:46:33;99171.84;;;1.44;100.00
43119;BME280;28729;49.838;8.650;2022-12-11T16:50:38;99172.69;;;1.51;100.00
43119;BME280;28729;49.838;8.650;2022-12-11T16:54:40;99169.56;;;1.54;100.00
43119;BME280;28729;49.838;8.650;2022-12-11T16:58:41;99166.25;;;1.52;100.00
43119;BME280;28729;49.838;8.650;2022-12-11T17:02:43;99169.16;;;1.50;100.00
43119;BME280;28729;49.838;8.650;2022-12-11T17:06:45;99166.84;;;1.47;100.00
43119;BME280;28729;49.838;8.650;2022-12-11T17:10:46;99165.78;;;1.42;100.00
43119;BME280;28729;49.838;8.650;2022-12-11T17:14:48;99159.72;;;1.40;100.00
43119;BME280;28729;49.838;8.650;2022-12-11T17:18:51;99157.00;;;1.40;100.00
43119;BME280;28729;49.838;8.650;2022-12-11T17:22:53;99161.19;;;1.42;100.00
43119;BME280;28729;49.838;8.650;2022-12-11T17:26:55;99152.22;;;1.42;100.00
43119;BME280;28729;49.838;8.650;2022-12-11T17:30:57;99162.44;;;1.40;100.00
43119;BME280;28729;49.838;8.650;2022-12-11T17:34:59;99157.22;;;1.38;100.00
43119;BME280;28729;49.838;8.650;2022-12-11T17:39:00;99164.97;;;1.41;100.00
43119;BME280;28729;49.838;8.650;2022-12-11T17:43:02;99160.16;;;1.43;100.00
43119;BME280;28729;49.838;8.650;2022-12-11T17:47:06;99166.44;;;1.44;100.00
43119;BME280;28729;49.838;8.650;2022-12-11T17:51:13;99162.25;;;1.41;100.00
43119;BME280;28729;49.838;8.650;2022-12-11T17:55:21;99163.47;;;1.39;100.00
43119;BME280;28729;49.838;8.650;2022-12-11T17:59:23;99163.06;;;1.35;100.00
43119;BME280;28729;49.838;8.650;2022-12-11T18:03:26;99162.44;;;1.33;100.00
43119;BME280;28729;49.838;8.650;2022-12-11T18:07:28;99161.38;;;1.27;100.00
43119;BME280;28729;49.838;8.650;2022-12-11T18:11:31;99166.19;;;1.25;100.00
43119;BME280;28729;49.838;8.650;2022-12-11T18:15:34;99166.59;;;1.22;100.00
43119;BME280;28729;49.838;8.650;2022-12-11T18:19:36;99162.00;;;1.23;100.00
43119;BME280;28729;49.838;8.650;2022-12-11T18:23:46;99168.69;;;1.20;100.00
43119;BME280;28729;49.838;8.650;2022-12-11T18:27:48;99165.09;;;1.13;100.00
43119;BME280;28729;49.838;8.650;2022-12-11T18:31:50;99165.94;;;1.13;100.00
43119;BME280;28729;49.838;8.650;2022-12-11T18:35:51;99158.88;;;1.19;100.00
43119;BME280;28729;49.838;8.650;2022-12-11T18:39:53;99159.47;;;1.21;100.00
43119;BME280;28729;49.838;8.650;2022-12-11T18:43:58;99160.53;;;1.20;100.00
43119;BME280;28729;49.838;8.650;2022-12-11T18:48:05;99157.19;;;1.18;100.00
43119;BME280;28729;49.838;8.650;2022-12-11T18:52:08;99166.56;;;1.16;100.00
43119;BME280;28729;49.838;8.650;2022-12-11T18:56:15;99158.00;;;1.12;100.00
43119;BME280;28729;49.838;8.650;2022-12-11T19:00:17;99163.19;;;1.07;100.00
43119;BME280;28729;49.838;8.650;2022-12-11T19:04:19;99160.28;;;1.02;100.00
43119;BME280;28729;49.838;8.650;2022-12-11T19:08:21;99154.63;;;0.97;100.00
43119;BME280;28729;49.838;8.650;2022-12-11T19:12:24;99162.53;;;0.91;100.00
43119;BME280;28729;49.838;8.650;2022-12-11T19:16:28;99165.88;;;0.87;100.00
43119;BME280;28729;49.838;8.650;2022-12-11T19:20:34;99169.81;;;0.84;100.00
43119;BME280;28729;49.838;8.650;2022-12-11T19:24:56;99159.38;;;0.88;100.00
43119;BME280;28729;49.838;8.650;2022-12-11T19:28:58;99154.59;;;0.90;100.00
43119;BME280;28729;49.838;8.650;2022-12-11T19:33:02;99153.16;;;0.94;100.00
43119;BME280;28729;49.838;8.650;2022-12-11T19:37:03;99158.38;;;0.96;100.00
43119;BME280;28729;49.838;8.650;2022-12-11T19:41:16;99149.38;;;0.95;100.00
43119;BME280;28729;49.838;8.650;2022-12-11T19:45:17;99148.56;;;0.95;100.00
43119;BME280;28729;49.838;8.650;2022-12-11T19:49:19;99151.06;;;0.89;100.00
43119;BME280;28729;49.838;8.650;2022-12-11T19:53:21;99157.72;;;0.87;100.00
43119;BME280;28729;49.838;8.650;2022-12-11T19:57:23;99150.81;;;0.84;100.00
43119;BME280;28729;49.838;8.650;2022-12-11T20:01:27;99157.91;;;0.85;100.00
43119;BME280;28729;49.838;8.650;2022-12-11T20:05:30;99150.41;;;0.87;100.00
43119;BME280;28729;49.838;8.650;2022-12-11T20:09:32;99161.28;;;0.87;100.00
43119;BME280;28729;49.838;8.650;2022-12-11T20:13:35;99155.19;;;0.85;100.00
43119;BME280;28729;49.838;8.650;2022-12-11T20:17:37;99162.09;;;0.88;100.00
43119;BME280;28729;49.838;8.650;2022-12-11T20:21:43;99152.31;;;0.94;100.00
43119;BME280;28729;49.838;8.650;2022-12-11T20:25:45;99161.72;;;0.98;100.00
43119;BME280;28729;49.838;8.650;2022-12-11T20:29:46;99158.16;;;0.97;100.00
43119;BME280;28729;49.838;8.650;2022-12-11T20:33:50;99156.75;;;1.01;100.00
43119;BME280;28729;49.838;8.650;2022-12-11T20:37:52;99151.72;;;1.05;100.00
43119;BME280;28729;49.838;8.650;2022-12-11T20:41:54;99156.75;;;1.08;100.00
43119;BME280;28729;49.838;8.650;2022-12-11T20:45:56;99146.50;;;1.10;100.00
43119;BME280;28729;49.838;8.650;2022-12-11T20:49:58;99152.56;;;1.12;100.00
43119;BME280;28729;49.838;8.650;2022-12-11T20:53:59;99154.69;;;1.17;100.00
43119;BME280;28729;49.838;8.650;2022-12-11T20:58:01;99158.47;;;1.22;100.00
43119;BME280;28729;49.838;8.650;2022-12-11T21:02:03;99161.38;;;1.27;100.00
43119;BME280;28729;49.838;8.650;2022-12-11T21:06:06;99154.91;;;1.28;100.00
43119;BME280;28729;49.838;8.650;2022-12-11T21:10:08;99158.25;;;1.30;100.00
43119;BME280;28729;49.838;8.650;2022-12-11T21:14:10;99160.97;;;1.30;100.00
43119;BME280;28729;49.838;8.650;2022-12-11T21:18:11;99163.06;;;1.28;100.00
43119;BME280;28729;49.838;8.650;2022-12-11T21:22:13;99164.50;;;1.24;100.00
43119;BME280;28729;49.838;8.650;2022-12-11T21:26:15;99160.53;;;1.27;100.00
43119;BME280;28729;49.838;8.650;2022-12-11T21:30:17;99157.41;;;1.30;100.00
43119;BME280;28729;49.838;8.650;2022-12-11T21:34:20;99155.53;;;1.30;100.00
43119;BME280;28729;49.838;8.650;2022-12-11T21:38:26;99155.53;;;1.24;100.00
43119;BME280;28729;49.838;8.650;2022-12-11T21:42:28;99158.88;;;1.19;100.00
43119;BME280;28729;49.838;8.650;2022-12-11T21:46:30;99170.34;;;1.21;100.00
43119;BME280;28729;49.838;8.650;2022-12-11T21:50:34;99165.31;;;1.18;100.00
43119;BME280;28729;49.838;8.650;2022-12-11T21:54:35;99171.38;;;1.20;100.00
43119;BME280;28729;49.838;8.650;2022-12-11T21:58:39;99167.22;;;1.24;100.00
43119;BME280;28729;49.838;8.650;2022-12-11T22:02:41;99172.03;;;1.29;100.00
43119;BME280;28729;49.838;8.650;2022-12-11T22:06:43;99168.06;;;1.31;100.00
43119;BME280;28729;49.838;8.650;2022-12-11T22:10:48;99171.41;;;1.33;100.00
43119;BME280;28729;49.838;8.650;2022-12-11T22:14:50;99162.66;;;1.31;100.00